Kezdőlap
METAR-TAF:

METAR-TAF

Repülőterek :

Kalkutta, India

földrajzi szélesség: 22-39N, földrajzi hosszúság: 088-27E, magasság: 4 m

Jelenlegi meteorológiai megfigyelések

A jelentés 32 perccel ezelõtt készült, 21:30 UTC
Délnyugati szél 7 kt
Hőmérséklet 24°C
Páratartalom 78%
Légköri nyomás 1011 hPa
Látótávolság: 2800 m
Száraz légköri homály

METAR: VECC 162130Z 22007KT 2800 HZ NSC 24/20 Q1011 NOSIG

Idő: 03:32 (22:02 UTC)

Előrejelzés

A jelentés 2 órával és 2 perccel ezelõtt készült, 20:00 UTC
Az előrejelzés 16-én 21 óra UTC és 17-én 06 óra UTC között érvényes
Északi szél kt
Látótávolság: 2000 m
Párásság
17-én 02 óra UTC és 17-én 04 óra UTC között fokozatosan kialakuló
Nyugat-délnyugati szél 5 kt
Látótávolság: 3200 m
Száraz légköri homály

TAF: VECC 162000Z 1621/1706 00000KT 2000 BR NSC BECMG 1702/1704 25005KT 3200 HZ

Meteorológiai megfigyelések és előrejelzések több, mint 4000 repülőtéren (METAR és TAF jelentéseket).

A térképen piros és sárga pontok jelzik az elérhető meteorológiai állomásokat.

Mozgassa az egeret a pont fölött, hogy megjelenjen az állomás neve.

Azután kattintson az időjárási megfigyelések és előrejelzések megtekintéséhez.

A térkép megváltoztatása: kattintson a fekete keresztel jelölt zöld gombra ráközelítéshez, a vonallal jelölt zöld gombra távolításhoz, vagy a zöld nyilakra a szomszédos térképek eléréséhez.


METAR-TAF: